Latest Weather Observations for Bega

IDN60801

Issued at 9:33 am EDT Monday 2 February 2015 (issued every 30 minutes, with the page automatically refreshed every 10 minutes)

About weather observations | Map of weather stations | Latest weather observations for NSW | Other Formats
Station Details ID: 069139 Name: BEGA AWS Lat: -36.67 Lon: 149.82 Height: 41.0 m
Data from the previous 72 hours. | See also: Recent months at Bega
Date/Time
EDT
Temp
°C
App
Temp
°C
Dew
Point
Rel
Hum
%
Delta-T
°C
Wind Press
QNH
hPa
Press
MSL
hPa
Rain
since 9 am
mm
Dir
 
Spd
km/h
Gust
km/h
Spd
kts
Gust
kts
02/09:30am 17.8 16.6 14.1 79 2.1 SSW 13 17 7 9 1018.2 1018.0 0.0
02/09:00am 16.8 14.9 14.3 85 1.4 SSW 17 20 9 11 1017.9 1017.7 0.0
02/08:30am 15.3 16.0 13.3 88 1.1 NE 2 7 1 4 1017.6 1017.4 0.0
02/08:00am 13.9 14.0 12.8 93 0.6 NE 4 7 2 4 1017.0 1016.8 0.0
02/07:30am 12.7 13.3 11.9 95 0.4 CALM 0 0 0 0 1016.5 1016.3 0.0
02/07:00am 11.2 10.1 10.7 97 0.3 NE 7 9 4 5 1016.1 1015.9 0.0
02/06:30am 11.5 11.5 11.0 97 0.3 NW 2 9 1 5 1015.3 1015.2 0.0
02/06:00am 11.1 11.2 10.3 95 0.4 CALM 0 0 0 0 1015.0 1014.9 0.0
02/05:30am 11.8 12.1 10.9 94 0.5 CALM 0 0 0 0 1014.8 1014.7 0.0
02/05:00am 11.9 12.1 10.6 92 0.7 CALM 0 0 0 0 1014.5 1014.4 0.0
02/04:30am 12.5 12.8 10.9 90 0.8 CALM 0 4 0 2 1014.2 1014.1 0.0
02/04:00am 12.2 12.4 10.6 90 0.8 CALM 0 7 0 4 1014.2 1014.1 0.0
02/03:30am 12.5 12.7 10.7 89 0.9 CALM 0 0 0 0 1014.3 1014.2 0.0
02/03:00am 12.8 13.2 11.2 90 0.8 CALM 0 0 0 0 1014.4 1014.3 0.0
02/02:30am 14.2 12.0 10.8 80 1.8 W 13 15 7 8 1014.5 1014.4 0.0
02/02:00am 13.3 12.5 11.2 87 1.1 SW 6 11 3 6 1014.6 1014.5 0.0
02/01:30am 14.1 14.2 11.4 84 1.4 SSW 2 7 1 4 1014.7 1014.6 0.0
02/01:00am 14.7 13.6 11.8 83 1.6 SW 9 11 5 6 1014.9 1014.8 0.0
02/12:30am 14.6 13.9 11.4 81 1.7 S 6 7 3 4 1014.9 1014.8 0.0
02/12:00am 15.2 13.9 11.2 77 2.1 W 9 13 5 7 1014.9 1014.8 0.0
 
Date/Time
EDT
Temp
°C
App
Temp
°C
Dew
Point
Rel
Hum
%
Delta-T
°C
Wind Press
QNH
hPa
Press
MSL
hPa
Rain
since 9 am
mm
Dir
 
Spd
km/h
Gust
km/h
Spd
kts
Gust
kts
01/11:30pm 15.6 16.2 11.8 78 2.1 CALM 0 0 0 0 1015.0 1014.9 0.0
01/11:00pm 16.3 14.8 11.9 75 2.4 SW 11 15 6 8 1014.8 1014.7 0.0
01/10:30pm 16.3 14.9 12.3 77 2.2 SW 11 17 6 9 1014.7 1014.6 0.0
01/10:00pm 15.9 14.8 12.1 78 2.1 SSW 9 11 5 6 1014.3 1014.2 0.0
01/09:30pm 16.7 15.7 12.3 75 2.4 SSW 9 13 5 7 1014.1 1014.0 0.0
01/09:00pm 17.8 17.1 12.0 69 3.2 SSW 7 9 4 5 1013.7 1013.6 0.0
01/08:30pm 18.7 16.1 12.0 65 3.7 S 17 22 9 12 1013.4 1013.3 0.0
01/08:00pm 19.1 15.0 11.4 61 4.2 SSW 24 33 13 18 1012.9 1012.8 0.0
01/07:30pm 19.3 16.7 12.1 63 4.0 SSW 17 22 9 12 1012.5 1012.4 0.0
01/07:00pm 19.7 17.3 12.7 64 3.9 SSW 17 24 9 13 1012.0 1011.9 0.0
01/06:30pm 20.0 17.0 12.5 62 4.2 SSW 20 30 11 16 1011.5 1011.4 0.0
01/05:30pm 20.7 17.0 13.9 65 3.9 S 26 33 14 18 1011.0 1010.9 0.0
01/05:00pm 21.1 16.9 13.5 62 4.4 S 28 35 15 19 1010.7 1010.6 0.0
01/04:30pm 21.8 19.5 14.2 62 4.4 S 19 30 10 16 1010.3 1010.2 0.0
01/04:00pm 22.1 21.3 15.0 64 4.2 SSE 13 19 7 10 1010.3 1010.2 0.0
01/03:30pm 21.4 20.4 15.7 70 3.4 SSE 15 20 8 11 1010.4 1010.3 0.0
01/03:00pm 22.4 20.6 14.5 61 4.7 ESE 17 24 9 13 1010.3 1010.2 0.0
01/02:30pm 22.1 21.3 14.0 60 4.7 S 11 19 6 10 1010.2 1010.1 0.0
01/02:00pm 22.2 20.4 13.3 57 5.1 S 15 20 8 11 1010.2 1010.1 0.0
01/01:30pm 22.3 19.6 13.6 58 5.0 S 20 26 11 14 1010.3 1010.2 0.0
01/01:00pm 23.1 21.3 13.3 54 5.7 SSE 15 24 8 13 1010.3 1010.2 0.0
01/12:30pm 22.7 19.8 12.9 54 5.6 S 20 28 11 15 1010.4 1010.3 0.0
01/12:00pm 22.7 19.3 12.6 53 5.8 SSW 22 30 12 16 1010.6 1010.5 0.0
01/11:30am 22.2 19.2 12.7 55 5.4 SSW 20 30 11 16 1010.7 1010.6 0.0
01/11:00am 21.3 19.6 12.4 57 5.0 SW 13 20 7 11 1010.7 1010.6 0.0
01/10:30am 20.5 18.3 12.0 58 4.8 SW 15 20 8 11 1010.8 1010.7 0.0
01/10:00am 20.1 17.4 11.8 59 4.6 SSW 17 20 9 11 1010.6 1010.5 0.0
01/09:30am 20.0 18.6 12.3 61 4.3 SW 11 20 6 11 1010.5 1010.4 0.0
01/09:00am 19.0 19.4 13.8 72 3.0 ENE 4 7 2 4 1010.5 1010.4 0.0
01/08:30am 17.3 17.5 13.0 76 2.4 N 4 7 2 4 1010.4 1010.3 0.0
01/08:00am 15.6 16.4 12.7 83 1.6 CALM 0 0 0 0 1010.3 1010.2 0.0
01/07:30am 14.7 15.1 12.4 86 1.3 NE 2 7 1 4 1010.0 1009.9 0.0
01/07:00am 14.4 15.0 11.9 85 1.4 CALM 0 0 0 0 1009.8 1009.7 0.0
01/06:30am 14.5 13.6 11.3 81 1.7 NW 7 13 4 7 1009.5 1009.4 0.0
01/06:00am 13.9 13.3 11.6 86 1.2 NE 6 9 3 5 1009.2 1009.1 0.0
01/05:30am 14.0 13.2 11.2 83 1.5 NE 6 9 3 5 1008.9 1008.8 0.0
01/05:00am 14.1 13.0 10.7 80 1.8 SW 7 9 4 5 1008.8 1008.7 0.0
01/04:30am 15.5 14.0 10.7 73 2.5 W 9 11 5 6 1008.7 1008.6 0.0
01/04:00am 15.8 14.9 10.6 71 2.8 WNW 6 9 3 5 1008.7 1008.6 0.0
01/03:30am 16.8 14.4 10.2 65 3.5 WSW 13 19 7 10 1008.8 1008.7 0.0
01/03:00am 17.3 14.9 10.2 63 3.8 WSW 13 20 7 11 1008.7 1008.6 0.0
01/02:30am 17.6 13.9 10.2 62 3.9 WSW 20 30 11 16 1008.7 1008.6 0.0
01/02:00am 17.8 14.7 10.4 62 4.0 WSW 17 28 9 15 1008.9 1008.8 0.0
01/01:30am 17.8 14.2 10.4 62 4.0 WSW 20 28 11 15 1008.8 1008.7 0.0
01/01:00am 17.8 15.1 10.4 62 4.0 WSW 15 26 8 14 1009.1 1009.0 0.0
01/12:30am 18.3 14.4 10.7 61 4.1 WSW 22 32 12 17 1009.4 1009.3 0.0
01/12:00am 17.6 16.1 11.8 69 3.2 SW 11 13 6 7 1009.7 1009.6 0.0
 
Date/Time
EDT
Temp
°C
App
Temp
°C
Dew
Point
Rel
Hum
%
Delta-T
°C
Wind Press
QNH
hPa
Press
MSL
hPa
Rain
since 9 am
mm
Dir
 
Spd
km/h
Gust
km/h
Spd
kts
Gust
kts
31/11:30pm 17.0 16.1 12.7 76 2.4 WSW 9 11 5 6 1009.7 1009.6 0.0
31/11:00pm 17.7 17.1 11.7 68 3.3 SSW 6 7 3 4 1009.8 1009.7 0.0
31/10:30pm 18.7 17.1 11.5 63 4.0 SW 11 17 6 9 1009.8 1009.7 0.0
31/10:00pm 18.0 17.4 11.8 67 3.4 SSW 6 11 3 6 1009.6 1009.5 0.0
31/09:30pm 18.4 18.2 11.7 65 3.7 SE 4 7 2 4 1009.4 1009.3 0.0
31/09:00pm 19.1 17.5 11.4 61 4.2 SW 11 19 6 10 1009.0 1008.9 0.0
31/08:30pm 19.2 16.4 11.3 60 4.3 WSW 17 26 9 14 1008.7 1008.6 0.0
31/08:00pm 19.7 15.9 11.2 58 4.7 WSW 22 39 12 21 1008.3 1008.2 0.0
31/07:40pm 20.0 14.9 10.7 55 5.1 WSW 28 48 15 26 1008.0 1007.9 0.0
31/07:30pm 20.1 15.9 11.1 56 4.9 WSW 24 35 13 19 1007.9 1007.8 0.0
31/07:00pm 20.4 15.8 11.1 55 5.1 WSW 26 39 14 21 1007.5 1007.4 0.0
31/06:30pm 21.4 18.4 12.0 55 5.3 SW 19 28 10 15 1007.3 1007.2 0.0
31/06:00pm 21.0 16.9 11.3 54 5.4 WSW 24 32 13 17 1007.0 1006.9 0.0
31/05:30pm 21.2 17.4 11.2 53 5.5 WSW 22 35 12 19 1006.8 1006.7 0.0
31/05:00pm 21.1 17.0 11.4 54 5.4 SW 24 33 13 18 1006.6 1006.5 0.0
31/04:30pm 21.3 18.1 11.3 53 5.5 SW 19 30 10 16 1006.8 1006.7 0.0
31/04:00pm 21.4 16.9 11.4 53 5.6 WSW 26 41 14 22 1006.8 1006.7 0.0
31/03:30pm 21.6 16.7 11.3 52 5.7 SW 28 41 15 22 1006.6 1006.5 0.0
31/03:00pm 22.3 17.5 11.7 51 6.0 SW 28 39 15 21 1006.7 1006.6 0.0
31/02:30pm 21.3 16.7 11.1 52 5.6 SW 26 37 14 20 1006.6 1006.5 0.0
31/02:00pm 21.7 17.2 11.4 52 5.7 SSW 26 33 14 18 1006.5 1006.4 0.0
31/01:30pm 21.8 17.2 11.2 51 5.9 SW 26 39 14 21 1006.6 1006.5 0.0
31/01:00pm 21.9 17.5 10.4 48 6.3 SW 24 35 13 19 1006.8 1006.7 0.0
31/12:30pm 21.2 17.4 11.2 53 5.5 SW 22 35 12 19 1007.1 1007.0 0.0
31/12:09pm 20.3 14.9 9.5 50 5.8 WSW 28 46 15 25 1007.2 1007.1 0.0
31/12:00pm 20.6 16.9 10.1 51 5.7 WSW 20 32 11 17 1007.4 1007.3 0.0
31/11:30am 19.8 15.3 10.0 53 5.3 WSW 24 41 13 22 1007.7 1007.6 0.0
31/11:00am 19.1 15.1 10.4 57 4.7 WSW 22 35 12 19 1007.8 1007.7 0.0
31/10:30am 19.3 14.5 10.3 56 4.8 WSW 26 35 14 19 1007.8 1007.7 0.0
31/10:00am 19.0 14.4 9.8 55 4.9 SW 24 37 13 20 1007.7 1007.6 0.0
31/09:30am 18.9 15.7 9.9 56 4.8 SW 17 28 9 15 1007.9 1007.8 0.0
31/09:00am 18.0 14.6 10.4 61 4.1 SW 19 30 10 16 1007.7 1007.6 0.0
31/08:30am 17.3 14.4 9.5 60 4.1 SW 15 22 8 12 1007.7 1007.6 0.0
31/08:00am 16.9 14.7 9.3 61 4.0 SW 11 17 6 9 1007.5 1007.4 0.0
31/07:30am 16.9 14.3 9.3 61 4.0 SW 13 20 7 11 1007.1 1007.0 0.0
31/07:00am 16.7 13.7 9.4 62 3.8 WSW 15 28 8 15 1006.8 1006.7 0.0
31/06:30am 16.7 13.4 9.4 62 3.8 SW 17 28 9 15 1006.8 1006.7 0.0
31/06:00am 16.4 13.1 9.6 64 3.6 SW 17 26 9 14 1006.6 1006.5 0.0
31/05:30am 16.5 13.5 9.4 63 3.7 SW 15 22 8 12 1006.5 1006.4 0.0
31/05:00am 16.5 12.7 9.2 62 3.8 WSW 19 30 10 16 1006.3 1006.2 0.0
31/04:30am 16.6 13.2 9.3 62 3.8 WSW 17 22 9 12 1006.6 1006.5 0.0
31/04:00am 16.8 13.0 9.2 61 4.0 WSW 19 26 10 14 1006.6 1006.5 0.0
31/03:30am 16.6 13.2 9.3 62 3.8 WSW 17 24 9 13 1006.8 1006.7 0.0
31/03:00am 16.9 12.9 9.1 60 4.1 WSW 20 35 11 19 1006.8 1006.7 0.0
31/02:30am 16.8 13.4 9.2 61 3.9 WSW 17 24 9 13 1007.2 1007.1 0.0
31/02:00am 16.7 12.7 8.9 60 4.0 WSW 20 33 11 18 1007.3 1007.2 0.0
31/01:30am 16.6 12.7 9.3 62 3.8 WSW 20 30 11 16 1007.4 1007.3 0.0
31/01:00am 16.7 12.3 9.1 61 3.9 WSW 22 30 12 16 1007.7 1007.6 0.0
31/12:30am 16.6 12.8 9.1 61 3.9 WSW 19 35 10 19 1007.9 1007.8 0.0
31/12:00am 16.7 13.7 9.4 62 3.8 WSW 15 32 8 17 1008.2 1008.1 0.0
 
Date/Time
EDT
Temp
°C
App
Temp
°C
Dew
Point
Rel
Hum
%
Delta-T
°C
Wind Press
QNH
hPa
Press
MSL
hPa
Rain
since 9 am
mm
Dir
 
Spd
km/h
Gust
km/h
Spd
kts
Gust
kts
30/11:30pm 16.9 12.2 9.3 61 4.0 WSW 24 37 13 20 1008.3 1008.2 0.0
30/11:00pm 17.2 12.2 9.4 60 4.1 SW 26 39 14 21 1008.4 1008.3 0.0
30/10:30pm 17.2 12.5 9.4 60 4.1 WSW 24 35 13 19 1008.5 1008.4 0.0
30/10:00pm 17.3 13.7 9.7 61 4.0 WSW 19 35 10 19 1008.6 1008.5 0.0
30/09:30pm 17.4 12.4 9.6 60 4.1 SW 26 43 14 23 1008.3 1008.2 0.0
30/09:00pm 17.6 13.0 9.8 60 4.1 SW 24 33 13 18 1008.2 1008.1 0.0
30/08:30pm 17.5 14.0 10.1 62 3.9 SW 19 32 10 17 1008.1 1008.0 0.0
30/08:00pm 17.8 11.9 10.4 62 4.0 SW 32 44 17 24 1008.0 1007.9 0.0
30/07:41pm 18.2 13.1 10.6 61 4.1 SW 28 46 15 25 1008.0 1007.9 0.0
30/07:30pm 18.1 13.4 10.7 62 4.0 SW 26 35 14 19 1007.9 1007.8 0.0
30/07:00pm 18.4 12.6 10.7 61 4.2 SW 32 50 17 27 1007.4 1007.3 0.0
30/06:40pm 18.5 13.7 11.6 64 3.8 SSW 28 46 15 25 1007.3 1007.2 0.0
30/06:30pm 18.6 13.3 11.2 62 4.0 SW 30 44 16 24 1007.1 1007.0 0.0
30/06:02pm 19.2 12.1 11.0 59 4.5 SW 39 57 21 31 1006.9 1006.8 0.0
30/06:00pm 19.3 12.3 11.1 59 4.5 SW 39 50 21 27 1006.9 1006.8 0.0
30/05:38pm 19.8 13.6 11.3 58 4.7 SW 35 54 19 29 1006.8 1006.7 0.0
30/05:30pm 19.6 13.8 11.4 59 4.5 SW 33 46 18 25 1006.7 1006.6 0.0
30/05:00pm 19.6 13.9 11.9 61 4.3 SSW 33 46 18 25 1006.8 1006.7 0.0
30/04:33pm 19.9 14.8 11.9 60 4.5 SW 30 52 16 28 1006.8 1006.7 0.0
30/04:30pm 20.0 15.0 12.3 61 4.3 SW 30 46 16 25 1007.0 1006.9 0.0
30/04:11pm 19.6 14.0 12.1 62 4.2 SW 33 52 18 28 1007.2 1007.1 0.0
30/04:00pm 19.6 13.5 11.9 61 4.3 SW 35 50 19 27 1007.1 1007.0 0.0
30/03:30pm 20.2 14.2 12.2 60 4.5 SSW 35 44 19 24 1007.1 1007.0 0.0
30/03:00pm 20.6 15.0 12.1 58 4.8 SW 33 54 18 29 1007.0 1006.9 0.0
30/02:48pm 20.8 16.2 12.2 58 4.8 SSW 28 48 15 26 1007.1 1007.0 0.0
30/02:30pm 20.4 15.2 12.9 62 4.3 SW 32 44 17 24 1007.3 1007.2 0.0
30/02:09pm 19.6 14.4 11.6 60 4.4 SW 30 48 16 26 1007.4 1007.3 0.0
30/02:00pm 20.4 15.9 13.8 66 3.8 SW 30 43 16 23 1007.4 1007.3 0.0
30/01:30pm 20.0 15.9 12.7 63 4.1 SW 26 43 14 23 1007.6 1007.5 0.0
30/01:00pm 19.4 14.2 11.7 61 4.3 SW 30 50 16 27 1007.7 1007.6 0.0
30/12:58pm 19.4 14.6 11.7 61 4.3 SW 28 50 15 27 1007.8 1007.7 0.0
30/12:30pm 19.1 14.3 11.7 62 4.1 SW 28 39 15 21 1007.9 1007.8 0.0
30/12:00pm 18.7 13.1 11.5 63 4.0 SW 32 44 17 24 1008.2 1008.1 0.0
30/11:30am 19.3 14.9 11.6 61 4.2 SW 26 37 14 20 1008.3 1008.2 0.0
30/11:07am 18.9 11.8 11.0 60 4.3 SW 39 57 21 31 1008.3 1008.2 0.0
30/11:00am 19.0 12.0 11.1 60 4.3 SW 39 56 21 30 1008.3 1008.2 0.0
30/10:36am 18.7 11.6 10.8 60 4.3 SW 39 57 21 31 1008.5 1008.4 0.0
30/10:30am 18.9 12.4 11.7 63 4.0 SW 37 50 20 27 1008.7 1008.6 0.0
30/10:18am 18.3 12.5 10.7 61 4.1 SW 32 54 17 29 1008.6 1008.5 0.0
30/10:00am 17.9 12.8 10.5 62 4.0 SW 28 43 15 23 1008.8 1008.7 0.0

Other Formats:

Comma delimited format used in spreadsheet applications
http://www.bom.gov.au/fwo/IDN60801/IDN60801.95931.axf

JavaScript Object Notation format (JSON) in row-major order
http://www.bom.gov.au/fwo/IDN60801/IDN60801.95931.json